createdAt,value
2017-09-03T00:01:15.830Z,27.60
2017-09-03T00:03:43.348Z,37.07
2017-09-03T00:06:10.854Z,27.40
2017-09-03T00:08:38.390Z,33.87
2017-09-03T00:11:05.892Z,41.10
2017-09-03T00:13:33.447Z,34.10
2017-09-03T00:16:00.965Z,33.73
2017-09-03T00:18:28.471Z,29.00
2017-09-03T00:20:56.014Z,31.20
2017-09-03T00:23:23.537Z,26.33
2017-09-03T00:25:51.067Z,27.37
2017-09-03T00:28:18.565Z,24.00
2017-09-03T00:30:46.068Z,26.30
2017-09-03T00:33:13.596Z,24.77
2017-09-03T00:35:41.156Z,28.03
2017-09-03T00:38:08.667Z,34.17
2017-09-03T00:40:36.191Z,32.87
2017-09-03T00:43:09.550Z,38.03
2017-09-03T00:45:37.077Z,29.80
2017-09-03T00:48:04.607Z,38.17
2017-09-03T00:50:32.135Z,34.23
2017-09-03T00:52:59.635Z,30.47
2017-09-03T00:55:27.135Z,27.20
2017-09-03T00:57:54.718Z,31.80
2017-09-03T01:00:22.238Z,27.50
2017-09-03T01:02:49.782Z,27.30
2017-09-03T01:05:17.311Z,47.20
2017-09-03T01:07:44.830Z,31.23
2017-09-03T01:10:12.382Z,35.57
2017-09-03T01:12:39.884Z,29.63
2017-09-03T01:15:07.427Z,40.13
2017-09-03T01:17:35.109Z,41.73
2017-09-03T01:20:02.620Z,27.93
2017-09-03T01:22:30.119Z,39.43
2017-09-03T01:24:57.670Z,37.60
2017-09-03T01:27:25.190Z,40.47
2017-09-03T01:29:52.706Z,33.40
2017-09-03T01:32:20.345Z,24.60
2017-09-03T01:34:47.847Z,30.73
2017-09-03T01:37:15.353Z,31.50
2017-09-03T01:39:42.884Z,29.13
2017-09-03T01:42:10.551Z,32.90
2017-09-03T01:44:38.047Z,31.07
2017-09-03T01:47:05.584Z,29.60
2017-09-03T01:49:33.157Z,27.67
2017-09-03T01:52:00.683Z,31.73
2017-09-03T01:54:28.219Z,27.00
2017-09-03T01:56:55.730Z,31.80
2017-09-03T01:59:23.246Z,40.20
2017-09-03T02:01:51.557Z,30.03
2017-09-03T02:04:19.064Z,29.57
2017-09-03T02:06:46.568Z,31.10
2017-09-03T02:09:14.119Z,41.10
2017-09-03T02:11:42.520Z,37.33
2017-09-03T02:14:10.047Z,30.63
2017-09-03T02:16:37.582Z,22.87
2017-09-03T02:19:05.089Z,21.97
2017-09-03T02:21:32.613Z,24.83
2017-09-03T02:24:00.152Z,25.67
2017-09-03T02:26:27.670Z,30.77
2017-09-03T02:28:55.168Z,33.60
2017-09-03T02:31:22.716Z,41.47
2017-09-03T02:33:50.259Z,38.43
2017-09-03T02:36:17.756Z,43.80
2017-09-03T02:38:45.298Z,29.23
2017-09-03T02:41:12.820Z,49.97
2017-09-03T02:43:40.329Z,35.43
2017-09-03T02:46:07.880Z,40.43
2017-09-03T02:48:35.392Z,40.40
2017-09-03T02:51:02.894Z,34.47
2017-09-03T02:53:30.442Z,38.80
2017-09-03T02:55:57.970Z,33.90
2017-09-03T02:58:25.486Z,30.27
2017-09-03T03:00:53.053Z,29.03
2017-09-03T03:03:20.571Z,42.00
2017-09-03T03:05:48.107Z,34.40
2017-09-03T03:08:15.666Z,38.03
2017-09-03T03:10:43.222Z,39.43
2017-09-03T03:13:10.733Z,33.17
2017-09-03T03:15:38.283Z,37.63
2017-09-03T03:18:05.798Z,31.67
2017-09-03T03:20:33.296Z,35.37
2017-09-03T03:23:00.828Z,33.07
2017-09-03T03:25:28.331Z,26.87
2017-09-03T03:27:55.933Z,29.80
2017-09-03T03:30:23.475Z,32.13
2017-09-03T03:32:50.994Z,34.87
2017-09-03T03:35:18.492Z,27.53
2017-09-03T03:37:46.039Z,39.53
2017-09-03T03:40:13.625Z,31.67
2017-09-03T03:42:41.128Z,35.40
2017-09-03T03:45:08.746Z,34.13
2017-09-03T03:47:36.250Z,38.87
2017-09-03T03:50:03.765Z,34.20
2017-09-03T03:52:31.310Z,35.80
2017-09-03T03:54:58.812Z,36.50
2017-09-03T03:57:26.316Z,28.83
2017-09-03T03:59:53.858Z,36.23
2017-09-03T04:02:21.380Z,33.53
2017-09-03T04:04:48.880Z,35.57
2017-09-03T04:07:17.291Z,42.27
2017-09-03T04:09:44.788Z,27.57
2017-09-03T04:12:12.296Z,30.47
2017-09-03T04:14:39.822Z,28.17
2017-09-03T04:17:07.325Z,35.70
2017-09-03T04:19:34.859Z,36.70
2017-09-03T04:22:02.406Z,38.93
2017-09-03T04:24:30.691Z,53.73
2017-09-03T04:26:58.209Z,35.40
2017-09-03T04:29:25.754Z,36.40
2017-09-03T04:31:53.264Z,39.17
2017-09-03T04:34:20.765Z,32.00
2017-09-03T04:36:48.296Z,32.93
2017-09-03T04:39:15.803Z,38.20
2017-09-03T04:41:44.091Z,44.87
2017-09-03T04:44:11.703Z,41.80
2017-09-03T04:46:39.223Z,41.93
2017-09-03T04:49:06.729Z,29.07
2017-09-03T04:51:34.279Z,39.70
2017-09-03T04:54:01.802Z,30.03
2017-09-03T04:56:29.307Z,36.53
2017-09-03T04:58:56.870Z,35.03
2017-09-03T05:01:24.410Z,36.87
2017-09-03T05:03:51.912Z,39.30
2017-09-03T05:06:19.439Z,38.37
2017-09-03T05:08:46.958Z,44.40
2017-09-03T05:11:14.487Z,37.70
2017-09-03T05:13:42.054Z,37.53
2017-09-03T05:16:09.556Z,50.97
2017-09-03T05:18:37.061Z,39.97
2017-09-03T05:21:04.596Z,34.13
2017-09-03T05:23:32.106Z,37.97
2017-09-03T05:25:59.603Z,46.17
2017-09-03T05:28:27.157Z,37.53
2017-09-03T05:30:54.661Z,40.23
2017-09-03T05:33:22.191Z,43.77
2017-09-03T05:35:49.740Z,41.23
2017-09-03T05:38:17.262Z,40.03
2017-09-03T05:40:44.781Z,37.83
2017-09-03T05:43:12.321Z,33.87
2017-09-03T05:45:39.822Z,38.17
2017-09-03T05:48:07.327Z,31.40
2017-09-03T05:50:34.862Z,36.80
2017-09-03T05:53:02.382Z,34.77
2017-09-03T05:55:29.888Z,41.07
2017-09-03T05:57:57.431Z,35.20
2017-09-03T06:00:24.946Z,31.73
2017-09-03T06:02:52.462Z,30.83
2017-09-03T06:05:20.010Z,29.50
2017-09-03T06:07:47.525Z,31.10
2017-09-03T06:10:15.033Z,29.03
2017-09-03T06:12:42.583Z,30.73
2017-09-03T06:15:10.163Z,25.93
2017-09-03T06:17:37.667Z,28.63
2017-09-03T06:20:05.220Z,24.70
2017-09-03T06:22:32.747Z,23.43
2017-09-03T06:25:00.274Z,30.03
2017-09-03T06:27:27.854Z,30.03
2017-09-03T06:29:55.357Z,19.43
2017-09-03T06:32:22.972Z,18.70
2017-09-03T06:34:50.521Z,16.23
2017-09-03T06:37:18.038Z,19.87
2017-09-03T06:39:45.547Z,18.07
2017-09-03T06:42:13.109Z,16.03
2017-09-03T06:44:40.669Z,15.20
2017-09-03T06:47:08.194Z,14.87
2017-09-03T06:49:35.789Z,16.03
2017-09-03T06:52:03.286Z,19.23
2017-09-03T06:54:30.801Z,13.40
2017-09-03T06:56:58.360Z,19.10
2017-09-03T06:59:25.875Z,12.67
2017-09-03T07:01:53.480Z,11.07
2017-09-03T07:04:21.011Z,19.77
2017-09-03T07:06:48.598Z,17.43
2017-09-03T07:09:16.184Z,12.73
2017-09-03T07:11:43.734Z,15.33
2017-09-03T07:14:11.231Z,14.43
2017-09-03T07:16:38.740Z,18.10
2017-09-03T07:19:06.289Z,15.03
2017-09-03T07:21:33.815Z,15.10
2017-09-03T07:24:01.350Z,13.17
2017-09-03T07:26:29.053Z,15.60
2017-09-03T07:28:56.568Z,17.17
2017-09-03T07:31:24.072Z,16.00
2017-09-03T07:33:51.604Z,14.27
2017-09-03T07:36:19.206Z,12.27
2017-09-03T07:38:46.707Z,17.60
2017-09-03T07:41:14.325Z,18.80
2017-09-03T07:43:41.827Z,16.83
2017-09-03T07:46:09.327Z,12.43
2017-09-03T07:48:36.860Z,15.00
2017-09-03T07:51:04.359Z,16.53
2017-09-03T07:53:31.914Z,12.27
2017-09-03T07:55:59.444Z,11.90
2017-09-03T07:58:27.034Z,13.90
2017-09-03T08:00:54.536Z,13.37
2017-09-03T08:03:22.087Z,13.23
2017-09-03T08:05:49.606Z,11.20
2017-09-03T08:08:17.120Z,16.47
2017-09-03T08:10:44.674Z,14.23
2017-09-03T08:13:12.191Z,16.60
2017-09-03T08:15:39.742Z,13.03
2017-09-03T08:18:07.297Z,13.97
2017-09-03T08:20:34.814Z,14.73
2017-09-03T08:23:02.334Z,17.80
2017-09-03T08:25:29.868Z,12.40
2017-09-03T08:27:57.395Z,15.73
2017-09-03T08:30:24.900Z,12.20
2017-09-03T08:32:52.450Z,13.30
2017-09-03T08:35:19.964Z,15.80
2017-09-03T08:37:47.478Z,14.10
2017-09-03T08:40:15.008Z,13.40
2017-09-03T08:42:42.507Z,13.27
2017-09-03T08:45:10.032Z,15.90
2017-09-03T08:47:37.572Z,12.67
2017-09-03T08:50:05.095Z,13.90
2017-09-03T08:52:32.610Z,18.83
2017-09-03T08:55:00.148Z,11.97
2017-09-03T08:57:27.680Z,16.00
2017-09-03T08:59:55.202Z,14.07
2017-09-03T09:02:22.733Z,16.23
2017-09-03T09:04:50.244Z,14.10
2017-09-03T09:07:17.774Z,19.07
2017-09-03T09:09:45.311Z,14.37
2017-09-03T09:12:12.834Z,16.87
2017-09-03T09:14:40.335Z,11.73
2017-09-03T09:17:07.868Z,15.57
2017-09-03T09:19:36.159Z,14.13
2017-09-03T09:22:03.672Z,12.73
2017-09-03T09:24:31.196Z,13.03
2017-09-03T09:26:58.725Z,14.97
2017-09-03T09:29:26.247Z,13.60
2017-09-03T09:31:53.802Z,12.73
2017-09-03T09:34:21.303Z,11.47
2017-09-03T09:36:48.889Z,18.40
2017-09-03T09:39:16.443Z,14.23
2017-09-03T09:41:44.007Z,15.23
2017-09-03T09:44:11.530Z,12.23
2017-09-03T09:46:39.827Z,11.00
2017-09-03T09:49:07.347Z,9.80
2017-09-03T09:51:34.866Z,11.90
2017-09-03T09:54:02.414Z,10.63
2017-09-03T09:56:29.942Z,5.53
2017-09-03T09:58:57.468Z,5.60
2017-09-03T10:01:24.996Z,8.20
2017-09-03T10:03:52.500Z,9.30
2017-09-03T10:06:19.999Z,10.37
2017-09-03T10:08:47.552Z,6.83
2017-09-03T10:11:15.075Z,9.80
2017-09-03T10:13:42.590Z,6.90
2017-09-03T10:16:10.119Z,6.50
2017-09-03T10:18:37.615Z,6.43
2017-09-03T10:21:05.126Z,9.70
2017-09-03T10:23:32.673Z,7.53
2017-09-03T10:26:00.188Z,9.13
2017-09-03T10:28:27.836Z,7.30
2017-09-03T10:30:55.374Z,7.50
2017-09-03T10:33:22.884Z,8.30
2017-09-03T10:35:50.394Z,7.57
2017-09-03T10:38:17.915Z,7.57
2017-09-03T10:40:45.430Z,6.70
2017-09-03T10:43:12.923Z,13.00
2017-09-03T10:45:40.452Z,7.70
2017-09-03T10:48:07.989Z,5.67
2017-09-03T10:50:35.524Z,14.73
2017-09-03T10:53:03.061Z,9.47
2017-09-03T10:55:30.570Z,11.33
2017-09-03T10:57:58.066Z,6.57
2017-09-03T11:00:25.591Z,6.60
2017-09-03T11:02:53.094Z,12.40
2017-09-03T11:05:20.592Z,7.73
2017-09-03T11:07:48.137Z,7.20
2017-09-03T11:10:15.647Z,4.20
2017-09-03T11:12:43.162Z,8.20
2017-09-03T11:15:10.689Z,8.30
2017-09-03T11:17:38.202Z,5.63
2017-09-03T11:20:05.699Z,8.87
2017-09-03T11:22:33.242Z,4.70
2017-09-03T11:25:00.757Z,6.87
2017-09-03T11:27:28.265Z,6.67
2017-09-03T11:29:55.800Z,11.03
2017-09-03T11:32:23.300Z,7.03
2017-09-03T11:34:50.800Z,9.77
2017-09-03T11:37:18.350Z,11.80
2017-09-03T11:39:45.869Z,8.17
2017-09-03T11:42:13.387Z,9.63
2017-09-03T11:44:40.925Z,7.33
2017-09-03T11:47:08.438Z,7.00
2017-09-03T11:49:35.941Z,13.90
2017-09-03T11:52:03.530Z,9.60
2017-09-03T11:54:31.023Z,6.77
2017-09-03T11:56:58.530Z,9.50
2017-09-03T11:59:26.074Z,8.03
2017-09-03T12:01:53.853Z,6.20
2017-09-03T12:04:21.374Z,10.20
2017-09-03T12:06:48.904Z,5.30
2017-09-03T12:09:16.409Z,4.87
2017-09-03T12:11:43.916Z,5.40
2017-09-03T12:14:11.440Z,6.53
2017-09-03T12:16:38.931Z,9.93
2017-09-03T12:19:06.428Z,5.60
2017-09-03T12:21:34.020Z,5.83
2017-09-03T12:24:01.543Z,5.10
2017-09-03T12:26:29.045Z,4.50
2017-09-03T12:28:56.595Z,6.37
2017-09-03T12:31:24.119Z,4.90
2017-09-03T12:33:51.630Z,6.00
2017-09-03T12:36:19.170Z,4.57
2017-09-03T12:38:46.699Z,7.07
2017-09-03T12:41:14.227Z,7.13
2017-09-03T12:43:41.798Z,5.40
2017-09-03T12:46:09.297Z,6.50
2017-09-03T12:48:36.818Z,5.70
2017-09-03T12:51:04.343Z,5.10
2017-09-03T12:53:31.837Z,6.80
2017-09-03T12:55:59.371Z,7.17
2017-09-03T12:58:26.915Z,5.57
2017-09-03T13:00:54.436Z,4.97
2017-09-03T13:03:21.928Z,4.60
2017-09-03T13:05:49.470Z,8.73
2017-09-03T13:08:16.968Z,7.00
2017-09-03T13:10:44.463Z,6.50
2017-09-03T13:13:12.006Z,4.83
2017-09-03T13:15:39.518Z,4.80
2017-09-03T13:18:07.061Z,4.70
2017-09-03T13:20:34.607Z,5.70
2017-09-03T13:23:02.129Z,3.50
2017-09-03T13:25:29.647Z,3.70
2017-09-03T13:27:57.186Z,5.20
2017-09-03T13:30:24.954Z,4.03
2017-09-03T13:32:52.463Z,3.53
2017-09-03T13:35:20.081Z,5.93
2017-09-03T13:37:47.593Z,7.03
2017-09-03T13:40:15.102Z,3.90
2017-09-03T13:42:42.628Z,3.50
2017-09-03T13:45:10.120Z,2.93
2017-09-03T13:47:37.671Z,4.17
2017-09-03T13:50:05.214Z,2.97
2017-09-03T13:52:32.789Z,3.47
2017-09-03T13:55:00.306Z,4.00
2017-09-03T13:57:27.846Z,6.60
2017-09-03T13:59:55.363Z,3.80
2017-09-03T14:02:22.877Z,3.83
2017-09-03T14:04:50.484Z,3.10
2017-09-03T14:07:17.998Z,2.47
2017-09-03T14:09:45.518Z,4.07
2017-09-03T14:12:13.045Z,3.60
2017-09-03T14:14:40.543Z,3.00
2017-09-03T14:17:08.047Z,2.63
2017-09-03T14:19:35.589Z,3.97
2017-09-03T14:22:03.084Z,3.23
2017-09-03T14:24:30.580Z,4.00
2017-09-03T14:26:58.107Z,4.80
2017-09-03T14:29:25.599Z,2.47
2017-09-03T14:31:53.118Z,3.10
2017-09-03T14:34:20.659Z,2.77
2017-09-03T14:36:48.173Z,3.20
2017-09-03T14:39:15.683Z,2.20
2017-09-03T14:41:43.212Z,5.43
2017-09-03T14:44:10.717Z,2.27
2017-09-03T14:46:38.211Z,3.70
2017-09-03T14:49:05.731Z,2.90
2017-09-03T14:51:33.223Z,2.83
2017-09-03T14:54:00.734Z,2.47
2017-09-03T14:56:28.264Z,2.47
2017-09-03T14:58:55.764Z,3.30
2017-09-03T15:01:23.273Z,2.20
2017-09-03T15:03:50.802Z,2.83
2017-09-03T15:06:18.309Z,5.37
2017-09-03T15:08:45.808Z,4.63
2017-09-03T15:11:13.331Z,3.63
2017-09-03T15:13:40.850Z,2.87
2017-09-03T15:16:08.342Z,2.70
2017-09-03T15:18:35.869Z,3.10
2017-09-03T15:21:03.381Z,5.53
2017-09-03T15:23:30.941Z,3.07
2017-09-03T15:25:58.484Z,4.67
2017-09-03T15:28:26.065Z,3.67
2017-09-03T15:30:53.618Z,3.33
2017-09-03T15:33:21.158Z,3.93
2017-09-03T15:35:48.738Z,9.13
2017-09-03T15:38:16.230Z,2.90
2017-09-03T15:40:43.774Z,4.53
2017-09-03T15:43:11.281Z,3.67
2017-09-03T15:45:39.566Z,2.10
2017-09-03T15:48:07.106Z,3.53
2017-09-03T15:50:34.608Z,3.80
2017-09-03T15:53:02.101Z,3.87
2017-09-03T15:55:29.651Z,9.60
2017-09-03T15:57:57.156Z,3.03
2017-09-03T16:00:24.677Z,4.20
2017-09-03T16:02:52.220Z,3.10
2017-09-03T16:05:19.751Z,2.57
2017-09-03T16:07:47.247Z,2.53
2017-09-03T16:10:14.790Z,8.00
2017-09-03T16:12:42.288Z,5.03
2017-09-03T16:15:09.788Z,2.90
2017-09-03T16:17:37.331Z,7.50
2017-09-03T16:20:04.906Z,5.43
2017-09-03T16:22:32.404Z,19.80
2017-09-03T16:24:59.931Z,14.77
2017-09-03T16:27:27.450Z,3.23
2017-09-03T16:29:54.943Z,4.30
2017-09-03T16:32:22.496Z,4.90
2017-09-03T16:34:50.014Z,13.63
2017-09-03T16:37:17.522Z,3.70
2017-09-03T16:39:45.048Z,4.20
2017-09-03T16:42:12.548Z,2.17
2017-09-03T16:44:40.040Z,8.40
2017-09-03T16:47:07.592Z,3.47
2017-09-03T16:49:35.083Z,8.03
2017-09-03T16:52:02.609Z,8.10
2017-09-03T16:54:30.132Z,5.40
2017-09-03T16:56:57.633Z,14.17
2017-09-03T16:59:25.239Z,13.73
2017-09-03T17:01:52.759Z,6.30
2017-09-03T17:04:20.270Z,3.10
2017-09-03T17:06:47.783Z,3.17
2017-09-03T17:09:15.323Z,3.63
2017-09-03T17:11:42.815Z,3.80
2017-09-03T17:14:10.307Z,3.40
2017-09-03T17:16:37.948Z,2.80
2017-09-03T17:19:06.222Z,3.97
2017-09-03T17:21:34.672Z,4.40
2017-09-03T17:24:02.201Z,2.40
2017-09-03T17:26:29.710Z,7.77
2017-09-03T17:28:57.209Z,19.13
2017-09-03T17:31:36.588Z,15.50
2017-09-03T17:34:04.172Z,14.80
2017-09-03T17:36:37.427Z,12.40
2017-09-03T17:39:04.942Z,12.00
2017-09-03T17:44:34.229Z,3.30
2017-09-03T17:47:03.851Z,4.03
2017-09-03T17:49:31.346Z,5.70
2017-09-03T17:51:58.865Z,12.50
2017-09-03T17:54:26.423Z,9.63
2017-09-03T17:56:53.946Z,9.07
2017-09-03T17:59:21.454Z,7.10
2017-09-03T18:01:49.003Z,8.20
2017-09-03T18:04:16.499Z,6.47
2017-09-03T18:06:44.016Z,3.80
2017-09-03T18:09:11.556Z,5.77
2017-09-03T18:11:39.066Z,5.47
2017-09-03T18:14:06.559Z,7.63
2017-09-03T18:16:34.085Z,4.93
2017-09-03T18:19:01.601Z,11.17
2017-09-03T18:21:29.091Z,5.20
2017-09-03T18:23:56.629Z,6.10
2017-09-03T18:26:24.126Z,8.50
2017-09-03T18:28:51.637Z,8.53
2017-09-03T18:34:22.822Z,5.03
2017-09-03T18:37:07.161Z,4.43
2017-09-03T18:39:40.450Z,3.90
2017-09-03T18:42:07.998Z,10.37
2017-09-03T18:44:35.500Z,3.93
2017-09-03T18:47:03.128Z,5.50
2017-09-03T18:49:33.174Z,8.47
2017-09-03T18:52:08.422Z,7.00
2017-09-03T18:54:35.945Z,5.10
2017-09-03T18:57:03.435Z,5.93
2017-09-03T18:59:31.749Z,9.40
2017-09-03T19:01:59.285Z,4.13
2017-09-03T19:04:26.788Z,7.80
2017-09-03T19:06:54.311Z,6.67
2017-09-03T19:09:21.831Z,3.40
2017-09-03T19:11:49.347Z,9.03
2017-09-03T19:14:16.862Z,9.40
2017-09-03T19:16:44.400Z,8.93
2017-09-03T19:19:11.915Z,8.23
2017-09-03T19:21:39.434Z,3.87
2017-09-03T19:24:06.974Z,4.40
2017-09-03T19:26:34.493Z,3.40
2017-09-03T19:29:02.026Z,9.30
2017-09-03T19:31:29.519Z,5.93
2017-09-03T19:33:57.035Z,4.00
2017-09-03T19:36:24.562Z,6.73
2017-09-03T19:38:52.929Z,7.47
2017-09-03T19:41:20.442Z,12.37
2017-09-03T19:43:47.962Z,5.30
2017-09-03T19:46:15.506Z,8.50
2017-09-03T19:48:43.004Z,5.17
2017-09-03T19:51:10.515Z,9.03
2017-09-03T19:53:38.056Z,5.87
2017-09-03T19:56:05.570Z,5.13
2017-09-03T19:58:33.072Z,4.30
2017-09-03T20:01:00.788Z,7.03
2017-09-03T20:03:28.301Z,5.90
2017-09-03T20:05:55.830Z,5.83
2017-09-03T20:08:23.343Z,12.60
2017-09-03T20:10:50.863Z,4.20
2017-09-03T20:13:18.376Z,5.30
2017-09-03T20:15:45.931Z,4.27
2017-09-03T20:18:13.448Z,7.20
2017-09-03T20:20:40.981Z,7.57
2017-09-03T20:23:08.510Z,5.90
2017-09-03T20:25:36.041Z,3.40
2017-09-03T20:28:03.564Z,10.00
2017-09-03T20:30:31.842Z,4.30
2017-09-03T20:32:59.374Z,6.07
2017-09-03T20:35:26.880Z,4.67
2017-09-03T20:37:54.416Z,6.77
2017-09-03T20:40:21.941Z,3.90
2017-09-03T20:42:49.458Z,5.33
2017-09-03T20:45:17.028Z,6.00
2017-09-03T20:47:44.558Z,4.67
2017-09-03T20:50:12.107Z,13.10
2017-09-03T20:52:39.630Z,3.20
2017-09-03T20:55:07.175Z,9.00
2017-09-03T20:57:34.720Z,7.80
2017-09-03T21:00:02.234Z,5.07
2017-09-03T21:02:30.558Z,4.10
2017-09-03T21:04:58.068Z,15.80
2017-09-03T21:07:25.620Z,9.80
2017-09-03T21:09:53.142Z,10.23
2017-09-03T21:12:20.657Z,5.60
2017-09-03T21:14:48.185Z,6.77
2017-09-03T21:17:15.703Z,7.60
2017-09-03T21:19:43.227Z,6.47
2017-09-03T21:22:10.723Z,9.57
2017-09-03T21:24:38.241Z,7.17
2017-09-03T21:27:05.790Z,14.67
2017-09-03T21:29:33.293Z,5.87
2017-09-03T21:32:00.799Z,6.07
2017-09-03T21:34:28.325Z,6.00
2017-09-03T21:36:55.828Z,10.97
2017-09-03T21:39:23.327Z,7.40
2017-09-03T21:41:50.852Z,6.70
2017-09-03T21:44:18.366Z,6.97
2017-09-03T21:46:45.915Z,6.07
2017-09-03T21:49:13.427Z,5.60
2017-09-03T21:51:40.963Z,14.23
2017-09-03T21:54:08.490Z,12.63
2017-09-03T21:56:35.995Z,7.90
2017-09-03T21:59:03.520Z,9.50
2017-09-03T22:01:31.164Z,6.37
2017-09-03T22:03:58.668Z,8.43
2017-09-03T22:06:26.204Z,6.53
2017-09-03T22:08:53.711Z,12.23
2017-09-03T22:11:21.297Z,5.70
2017-09-03T22:13:48.849Z,10.70
2017-09-03T22:16:16.352Z,11.27
2017-09-03T22:18:43.856Z,6.63
2017-09-03T22:21:11.402Z,7.50
2017-09-03T22:23:38.985Z,6.73
2017-09-03T22:26:06.511Z,7.27
2017-09-03T22:28:34.103Z,12.37
2017-09-03T22:31:01.643Z,7.67
2017-09-03T22:33:29.165Z,6.80
2017-09-03T22:35:56.715Z,7.20
2017-09-03T22:38:24.225Z,7.93
2017-09-03T22:40:51.728Z,8.87
2017-09-03T22:43:19.260Z,14.10
2017-09-03T22:45:46.814Z,7.00
2017-09-03T22:48:14.335Z,7.73
2017-09-03T22:50:41.879Z,7.90
2017-09-03T22:53:09.399Z,9.67
2017-09-03T22:55:36.914Z,6.90
2017-09-03T22:58:04.510Z,7.80
2017-09-03T23:00:32.030Z,8.00
2017-09-03T23:02:59.626Z,8.50
2017-09-03T23:05:27.156Z,7.17
2017-09-03T23:07:54.674Z,13.20
2017-09-03T23:10:22.190Z,7.20
2017-09-03T23:12:49.720Z,7.00
2017-09-03T23:15:17.216Z,8.53
2017-09-03T23:17:44.716Z,5.50
2017-09-03T23:20:12.240Z,8.63
2017-09-03T23:22:39.754Z,9.17
2017-09-03T23:25:08.017Z,9.40
2017-09-03T23:27:35.539Z,9.50
2017-09-03T23:30:03.032Z,7.17
2017-09-03T23:32:30.540Z,10.43
2017-09-03T23:34:58.072Z,7.03
2017-09-03T23:37:25.589Z,7.03
2017-09-03T23:39:53.084Z,7.00
2017-09-03T23:42:21.402Z,11.93
2017-09-03T23:44:48.917Z,7.93
2017-09-03T23:47:16.407Z,7.50
2017-09-03T23:49:43.945Z,10.20
2017-09-03T23:52:11.444Z,16.87
2017-09-03T23:54:38.940Z,10.00
2017-09-03T23:57:06.476Z,8.67
2017-09-03T23:59:33.967Z,6.97
